^^
Station Historical Data
Daily Summary for August 2, 2017 Units:  English    Metric   Both
« Previous Day
Next Day »
Daily Weekly Monthly Yearly Custom
  High: Low: Average:
Temperature: 86.4 °F 66.7 °F 72 °F
Dew Point: 72.4 °F 64.9 °F 67.6 °F
Humidity: 96% 60% 87%
Wind Speed: 5.0mph 0.0mph 0.4mph
Wind Gust: 12.0mph - -
Wind- - SSW
Pressure: 30.11 in 30.01 in -
Precipitation: 0.30 in    
Historical Graphs
 
 
Tabular Data for August 2, 2017
Time Temperature Dew Point Pressure Wind Wind Speed Wind Gust Humidity Rainfall Rate (Hourly) Conditions
00:00 73.2 °F 65.2 °F 30.04 in Calm     76% 0.00 in CLR
00:15 72.9 °F 64.9 °F 30.04 in Calm   1.0 mph 76% 0.00 in CLR
00:30 72.2 °F 65.0 °F 30.04 in Calm     78% 0.00 in CLR
00:45 71.7 °F 65.2 °F 30.04 in Calm     80% 0.00 in CLR
01:00 71.5 °F 65.3 °F 30.04 in Calm     81% 0.00 in CLR
01:15 71.0 °F 65.2 °F 30.04 in Calm     82% 0.00 in CLR
01:30 71.1 °F 65.7 °F 30.04 in Calm     83% 0.00 in CLR
01:45 70.9 °F 65.5 °F 30.04 in Calm     83% 0.00 in CLR
02:00 70.5 °F 65.7 °F 30.04 in Calm     85% 0.00 in CLR
02:15 69.8 °F 65.8 °F 30.03 in Calm     87% 0.00 in CLR
02:30 69.5 °F 65.8 °F 30.04 in Calm     88% 0.00 in CLR
02:45 69.3 °F 65.6 °F 30.04 in Calm     88% 0.00 in CLR
03:00 70.0 °F 66.0 °F 30.04 in Calm   1.0 mph 87% 0.00 in CLR
03:15 69.4 °F 65.4 °F 30.03 in Calm     87% 0.00 in CLR
03:30 69.1 °F 65.7 °F 30.03 in Calm     89% 0.00 in CLR
03:45 68.9 °F 65.8 °F 30.03 in Calm     90% 0.00 in CLR
04:00 68.6 °F 65.9 °F 30.03 in Calm     91% 0.00 in CLR
04:15 68.6 °F 65.9 °F 30.03 in Calm     91% 0.00 in CLR
04:30 68.6 °F 66.2 °F 30.04 in Calm     92% 0.00 in CLR
04:45 68.8 °F 66.7 °F 30.04 in Calm   1.0 mph 93% 0.00 in CLR
04:59 68.6 °F 66.2 °F 30.03 in Calm     92% 0.00 in CLR
05:15 68.3 °F 66.2 °F 30.04 in Calm     93% 0.00 in CLR
05:30 68.0 °F 65.9 °F 30.04 in Calm     93% 0.00 in CLR
05:45 68.1 °F 66.3 °F 30.04 in Calm     94% 0.00 in CLR
06:00 68.1 °F 66.3 °F 30.04 in Calm     94% 0.00 in CLR
06:15 68.4 °F 66.6 °F 30.05 in Calm     94% 0.00 in CLR
06:30 68.6 °F 67.1 °F 30.05 in Calm     95% 0.00 in CLR
06:45 69.0 °F 67.2 °F 30.05 in Calm     94% 0.00 in CLR
07:00 69.2 °F 67.4 °F 30.05 in Calm     94% 0.00 in CLR
07:15 69.5 °F 67.7 °F 30.05 in Calm     94% 0.00 in CLR
07:30 70.5 °F 69.0 °F 30.06 in Calm     95% 0.00 in CLR
07:45 71.2 °F 69.4 °F 30.06 in Calm     94% 0.00 in CLR
08:00 71.7 °F 69.0 °F 30.06 in Calm   1.0 mph 91% 0.00 in CLR
08:15 72.7 °F 69.6 °F 30.06 in Calm   1.0 mph 90% 0.00 in CLR
08:30 74.0 °F 70.5 °F 30.06 in Calm   2.0 mph 89% 0.00 in CLR
08:45 75.3 °F 70.8 °F 30.07 in Calm   2.0 mph 86% 0.00 in CLR
09:00 75.6 °F 70.4 °F 30.07 in Calm   2.0 mph 84% 0.00 in CLR
09:15 76.8 °F 70.9 °F 30.07 in WSW 1.0 mph 2.0 mph 82% 0.00 in CLR
09:30 77.2 °F 71.3 °F 30.07 in Calm   2.0 mph 82% 0.00 in CLR
09:45 77.5 °F 71.2 °F 30.07 in Calm   3.0 mph 81% 0.00 in CLR
10:00 79.2 °F 72.1 °F 30.07 in Calm   2.0 mph 79% 0.00 in CLR
10:15 80.0 °F 72.2 °F 30.07 in Calm   2.0 mph 77% 0.00 in CLR
10:30 81.5 °F 72.4 °F 30.07 in Calm   3.0 mph 74% 0.00 in CLR
10:45 81.9 °F 72.4 °F 30.07 in WSW 1.0 mph 5.0 mph 73% 0.00 in CLR
11:00 80.7 °F 72.4 °F 30.07 in WNW 1.0 mph 5.0 mph 76% 0.00 in CLR
11:30 84.2 °F 71.6 °F 30.07 in SW 3.0 mph 7.0 mph 66% 0.00 in FEW
11:45 84.9 °F 72.3 °F 30.07 in SSW 1.0 mph 6.0 mph 66% 0.00 in FEW
12:00 85.2 °F 70.7 °F 30.06 in WSW 1.0 mph 6.0 mph 62% 0.00 in FEW
12:15 85.8 °F 71.3 °F 30.06 in SW 2.0 mph 5.0 mph 62% 0.00 in SCT
12:30 86.4 °F 71.4 °F 30.04 in SW 2.0 mph 8.0 mph 61% 0.00 in SCT
12:45 86.4 °F 70.9 °F 30.04 in SW 5.0 mph 7.0 mph 60% 0.00 in SCT
13:00 85.0 °F 70.0 °F 30.03 in SW 1.0 mph 8.0 mph 61% 0.00 in SCT
13:15 83.5 °F 69.5 °F 30.04 in SW 5.0 mph 12.0 mph 63% 0.00 in SCT
13:30 79.3 °F 67.4 °F 30.06 in SSW 3.0 mph 12.0 mph 67% 0.00 in SCT
13:45 76.5 °F 66.8 °F 30.05 in Calm   9.0 mph 72% 0.00 in SCT
14:00 72.9 °F 66.0 °F 30.05 in Calm   3.0 mph 79% 0.01 in SCT
14:15 71.5 °F 67.8 °F 30.05 in NE 1.0 mph 6.0 mph 88% 0.00 in BKN
14:30 71.1 °F 67.7 °F 30.04 in Calm   4.0 mph 89% 0.01 in RA
14:45 70.9 °F 67.2 °F 30.03 in Calm   1.0 mph 88% 0.01 in RA
15:00 71.1 °F 68.0 °F 30.01 in East 1.0 mph 4.0 mph 90% 0.00 in BKN
15:15 71.5 °F 68.4 °F 30.03 in Calm   12.0 mph 90% 0.01 in RA
15:30 71.3 °F 68.5 °F 30.02 in Calm   2.0 mph 91% 0.00 in SCT
15:45 71.4 °F 68.6 °F 30.02 in Calm     91% 0.00 in SCT
16:00 71.2 °F 68.8 °F 30.05 in Calm   1.0 mph 92% 0.01 in RA
16:15 71.0 °F 68.2 °F 30.07 in Calm   1.0 mph 91% 0.00 in -RA
16:30 70.9 °F 67.9 °F 30.09 in Calm   6.0 mph 90% 0.04 in -RA
16:45 70.3 °F 67.6 °F 30.09 in NNE 2.0 mph 7.0 mph 91% 0.05 in -RA
17:00 69.5 °F 66.4 °F 30.09 in NNW 2.0 mph 7.0 mph 90% 0.03 in -RA
17:15 68.7 °F 66.3 °F 30.08 in Calm   4.0 mph 92% 0.07 in -RA
17:30 68.5 °F 66.4 °F 30.10 in Calm   4.0 mph 93% 0.01 in -RA
17:45 68.5 °F 66.1 °F 30.10 in Calm   4.0 mph 92% 0.01 in -RA
18:00 68.3 °F 66.2 °F 30.09 in Calm   1.0 mph 93% 0.02 in -RA
18:15 68.5 °F 66.7 °F 30.08 in Calm   1.0 mph 94% 0.01 in RA
18:30 68.6 °F 66.8 °F 30.08 in Calm   1.0 mph 94% 0.00 in BKN
18:45 68.7 °F 66.9 °F 30.07 in Calm   1.0 mph 94% 0.00 in BKN
19:00 68.8 °F 67.0 °F 30.05 in Calm   1.0 mph 94% 0.00 in BKN
19:15 68.7 °F 66.9 °F 30.04 in Calm   2.0 mph 94% 0.00 in BKN
19:30 68.3 °F 66.8 °F 30.05 in ENE 1.0 mph 3.0 mph 95% 0.00 in BKN
19:45 68.3 °F 66.8 °F 30.06 in Calm   3.0 mph 95% 0.00 in BKN
20:00 68.2 °F 66.7 °F 30.06 in Calm   3.0 mph 95% 0.00 in BKN
20:15 68.0 °F 66.5 °F 30.08 in Calm   2.0 mph 95% 0.00 in BKN
20:30 68.0 °F 66.5 °F 30.09 in Calm   2.0 mph 95% 0.00 in BKN
20:45 67.6 °F 66.1 °F 30.09 in Calm     95% 0.00 in BKN
21:00 67.4 °F 65.9 °F 30.10 in Calm   1.0 mph 95% 0.00 in BKN
21:15 67.4 °F 66.2 °F 30.10 in Calm     96% 0.00 in SCT
21:30 67.1 °F 65.9 °F 30.10 in Calm   1.0 mph 96% 0.00 in SCT
21:45 66.9 °F 65.7 °F 30.10 in Calm   1.0 mph 96% 0.00 in SCT
22:00 66.9 °F 65.7 °F 30.10 in Calm   1.0 mph 96% 0.00 in SCT
22:15 66.8 °F 65.6 °F 30.10 in Calm     96% 0.00 in SCT
22:30 67.0 °F 65.8 °F 30.10 in Calm   1.0 mph 96% 0.01 in RA
22:45 67.2 °F 66.0 °F 30.10 in Calm   1.0 mph 96% 0.00 in SCT
23:00 67.1 °F 65.9 °F 30.10 in Calm   1.0 mph 96% 0.00 in SCT
23:45 66.7 °F 65.5 °F 30.11 in Calm     96% 0.00 in CLR
TarryTown NY Weather
Compliments of Weather Underground - 1.5 mb